createdAt,value
2023-04-16T00:00:34.758Z,8.8
2023-04-16T00:05:40.885Z,8.8
2023-04-16T00:10:46.987Z,8.7
2023-04-16T00:15:53.108Z,8.7
2023-04-16T00:20:58.309Z,8.7
2023-04-16T00:26:03.384Z,8.7
2023-04-16T00:31:09.501Z,8.6
2023-04-16T00:36:15.589Z,8.5
2023-04-16T00:41:21.737Z,8.5
2023-04-16T00:46:27.862Z,8.5
2023-04-16T00:51:33.985Z,8.5
2023-04-16T00:56:40.090Z,8.4
2023-04-16T01:01:45.249Z,8.4
2023-04-16T01:06:50.357Z,8.4
2023-04-16T01:11:56.466Z,8.4
2023-04-16T01:17:02.577Z,8.4
2023-04-16T01:22:08.709Z,8.3
2023-04-16T01:27:14.823Z,8.3
2023-04-16T01:32:20.950Z,8.3
2023-04-16T01:37:27.040Z,8.3
2023-04-16T01:42:33.160Z,8.3
2023-04-16T01:47:39.269Z,8.2
2023-04-16T01:52:45.400Z,8.2
2023-04-16T01:57:51.514Z,8.2
2023-04-16T02:02:57.617Z,8.2
2023-04-16T02:08:03.737Z,8.1
2023-04-16T02:13:08.882Z,8.1
2023-04-16T02:18:14.991Z,8.1
2023-04-16T02:23:21.102Z,8.1
2023-04-16T02:28:27.209Z,8.1
2023-04-16T02:33:33.320Z,8.1
2023-04-16T02:38:39.441Z,8
2023-04-16T02:43:45.559Z,8
2023-04-16T02:48:51.678Z,7.9
2023-04-16T02:53:57.780Z,7.8
2023-04-16T02:59:03.920Z,7.8
2023-04-16T03:04:20.208Z,7.8
2023-04-16T03:09:16.156Z,7.8
2023-04-16T03:14:22.229Z,7.7
2023-04-16T03:19:27.368Z,7.7
2023-04-16T03:24:33.495Z,7.7
2023-04-16T03:29:39.582Z,7.6
2023-04-16T03:34:45.720Z,7.6
2023-04-16T03:39:51.823Z,7.6
2023-04-16T03:44:57.946Z,7.5
2023-04-16T03:50:04.064Z,7.5
2023-04-16T03:55:10.152Z,7.5
2023-04-16T04:00:16.287Z,7.5
2023-04-16T04:05:22.405Z,7.5
2023-04-16T04:10:28.511Z,7.5
2023-04-16T04:15:34.623Z,7.5
2023-04-16T04:20:40.742Z,7.5
2023-04-16T04:25:45.964Z,7.5
2023-04-16T04:30:51.975Z,7.5
2023-04-16T04:35:58.090Z,7.4
2023-04-16T04:41:04.203Z,7.4
2023-04-16T04:46:10.360Z,7.5
2023-04-16T04:51:16.441Z,7.4
2023-04-16T04:56:22.563Z,7.4
2023-04-16T05:01:28.659Z,7.4
2023-04-16T05:06:34.935Z,7.4
2023-04-16T05:11:40.894Z,7.4
2023-04-16T05:16:47.015Z,7.5
2023-04-16T05:21:53.114Z,7.5
2023-04-16T05:26:59.221Z,7.5
2023-04-16T05:32:04.363Z,7.5
2023-04-16T05:37:10.494Z,7.5
2023-04-16T05:42:16.619Z,7.5
2023-04-16T05:47:22.699Z,7.5
2023-04-16T05:52:28.817Z,7.5
2023-04-16T05:57:34.921Z,7.5
2023-04-16T06:02:41.052Z,7.6
2023-04-16T06:07:47.176Z,7.6
2023-04-16T06:12:53.266Z,7.6
2023-04-16T06:17:59.398Z,7.6
2023-04-16T06:23:05.500Z,7.6
2023-04-16T06:28:11.622Z,7.6
2023-04-16T06:38:23.856Z,7.6
2023-04-16T06:43:28.969Z,7.7
2023-04-16T06:48:35.092Z,7.7
2023-04-16T06:53:41.201Z,7.7
2023-04-16T06:58:47.315Z,7.7
2023-04-16T07:03:53.421Z,7.8
2023-04-16T07:08:59.532Z,7.8
2023-04-16T07:14:05.664Z,7.9
2023-04-16T07:19:11.775Z,7.9
2023-04-16T07:24:17.898Z,7.9
2023-04-16T07:29:24.029Z,8
2023-04-16T07:39:36.267Z,8
2023-04-16T07:44:42.387Z,8
2023-04-16T07:49:47.464Z,8.2
2023-04-16T07:54:53.572Z,8.1
2023-04-16T07:59:59.684Z,8.1
2023-04-16T08:05:05.798Z,8.2
2023-04-16T08:10:11.898Z,8.2
2023-04-16T08:15:18.027Z,8.2
2023-04-16T08:20:24.129Z,8.2
2023-04-16T08:25:30.249Z,8.3
2023-04-16T08:30:36.368Z,8.3
2023-04-16T08:35:42.491Z,8.2
2023-04-16T08:40:49.939Z,8.2
2023-04-16T08:45:54.748Z,8.2
2023-04-16T08:51:00.830Z,8.3
2023-04-16T08:56:05.955Z,8.3
2023-04-16T09:01:12.068Z,8.3
2023-04-16T09:06:18.210Z,8.3
2023-04-16T09:11:24.311Z,8.3
2023-04-16T09:21:36.523Z,8.4
2023-04-16T09:26:42.749Z,8.4
2023-04-16T09:31:48.767Z,8.3
2023-04-16T09:36:54.866Z,8.4
2023-04-16T09:42:00.976Z,8.6
2023-04-16T09:47:07.093Z,8.7
2023-04-16T09:52:13.215Z,8.6
2023-04-16T09:57:19.326Z,8.6
2023-04-16T10:02:24.437Z,8.7
2023-04-16T10:07:30.564Z,8.6
2023-04-16T10:12:36.819Z,8.5
2023-04-16T10:17:42.805Z,8.5
2023-04-16T10:22:48.911Z,8.7
2023-04-16T10:27:55.043Z,8.4
2023-04-16T10:33:01.133Z,8.6
2023-04-16T10:38:07.276Z,8.6
2023-04-16T10:43:13.353Z,8.6
2023-04-16T10:48:19.496Z,8.8
2023-04-16T10:53:25.625Z,8.7
2023-04-16T10:58:31.737Z,8.7
2023-04-16T11:03:37.851Z,8.7
2023-04-16T11:08:42.962Z,8.8
2023-04-16T11:13:49.084Z,9
2023-04-16T11:18:55.201Z,9.1
2023-04-16T11:24:01.301Z,9
2023-04-16T11:29:07.418Z,9
2023-04-16T11:34:13.655Z,9.1
2023-04-16T11:39:19.700Z,9.4
2023-04-16T11:44:25.741Z,9.9
2023-04-16T11:49:31.882Z,9.9
2023-04-16T11:54:37.982Z,9.7
2023-04-16T11:59:44.081Z,10.6
2023-04-16T12:04:50.197Z,10.3
2023-04-16T12:09:56.365Z,10.1
2023-04-16T12:15:01.468Z,10.2
2023-04-16T12:20:07.545Z,10.2
2023-04-16T12:25:13.651Z,10.3
2023-04-16T12:30:19.775Z,10
2023-04-16T12:35:25.881Z,10.1
2023-04-16T12:40:31.988Z,10.4
2023-04-16T12:45:38.265Z,10.2
2023-04-16T12:50:44.203Z,10
2023-04-16T12:55:50.418Z,9.9
2023-04-16T13:00:56.418Z,9.8
2023-04-16T13:06:02.552Z,9.5
2023-04-16T13:11:08.644Z,9.4
2023-04-16T13:16:14.783Z,9.3
2023-04-16T13:21:19.952Z,9.3
2023-04-16T13:26:26.001Z,9.5
2023-04-16T13:31:32.097Z,10
2023-04-16T13:36:38.317Z,10
2023-04-16T13:41:44.408Z,9.9
2023-04-16T13:46:50.432Z,9.5
2023-04-16T13:51:56.543Z,9.3
2023-04-16T13:57:02.721Z,9.2
2023-04-16T14:02:08.761Z,9.2
2023-04-16T14:07:14.855Z,9.2
2023-04-16T14:12:20.995Z,9.4
2023-04-16T14:17:27.100Z,9.5
2023-04-16T14:22:33.203Z,9.5
2023-04-16T14:27:38.418Z,9.6
2023-04-16T14:32:44.452Z,9.8
2023-04-16T14:37:50.561Z,10
2023-04-16T14:42:56.681Z,10.3
2023-04-16T14:48:02.822Z,10.2
2023-04-16T14:53:08.994Z,9.9
2023-04-16T14:58:15.032Z,10.1
2023-04-16T15:03:21.229Z,10.1
2023-04-16T15:08:27.237Z,10.2
2023-04-16T15:13:33.374Z,10.3
2023-04-16T15:18:39.522Z,10.3
2023-04-16T15:23:45.583Z,9.9
2023-04-16T15:28:51.703Z,9.8
2023-04-16T15:33:56.845Z,9.5
2023-04-16T15:39:02.948Z,9.5
2023-04-16T15:44:09.071Z,9.5
2023-04-16T15:49:15.197Z,9.4
2023-04-16T15:54:21.303Z,9.5
2023-04-16T15:59:27.431Z,9.5
2023-04-16T16:04:33.546Z,9.6
2023-04-16T16:09:39.648Z,9.6
2023-04-16T16:14:45.762Z,9.5
2023-04-16T16:19:51.861Z,9.5
2023-04-16T16:24:57.999Z,9.4
2023-04-16T16:30:04.119Z,9.3
2023-04-16T16:35:10.212Z,9.3
2023-04-16T16:40:15.349Z,9.3
2023-04-16T16:45:21.457Z,9.3
2023-04-16T16:50:27.575Z,9.3
2023-04-16T16:55:33.688Z,9.3
2023-04-16T17:00:39.808Z,9.3
2023-04-16T17:05:45.923Z,9.3
2023-04-16T17:10:52.058Z,9.3
2023-04-16T17:15:58.149Z,9.2
2023-04-16T17:21:04.274Z,9.2
2023-04-16T17:26:10.381Z,9.1
2023-04-16T17:31:15.525Z,9.1
2023-04-16T17:36:21.641Z,9.1
2023-04-16T17:41:27.743Z,9
2023-04-16T17:46:33.859Z,9
2023-04-16T17:51:39.969Z,8.9
2023-04-16T17:56:46.079Z,8.9
2023-04-16T18:01:52.182Z,8.8
2023-04-16T18:06:58.302Z,8.7
2023-04-16T18:12:04.411Z,8.7
2023-04-16T18:17:10.622Z,8.7
2023-04-16T18:22:16.674Z,8.7
2023-04-16T18:27:22.761Z,8.6
2023-04-16T18:32:28.843Z,8.5
2023-04-16T18:37:33.979Z,8.5
2023-04-16T18:42:40.093Z,8.4
2023-04-16T18:47:46.203Z,8.4
2023-04-16T18:52:52.288Z,8.4
2023-04-16T18:57:58.408Z,8.3
2023-04-16T19:03:04.531Z,8.3
2023-04-16T19:08:10.658Z,8.2
2023-04-16T19:13:16.749Z,8.2
2023-04-16T19:18:22.890Z,8.3
2023-04-16T19:23:28.991Z,8.2
2023-04-16T19:28:35.105Z,8.1
2023-04-16T19:33:41.227Z,8.1
2023-04-16T19:38:47.364Z,8.1
2023-04-16T19:43:52.521Z,8
2023-04-16T19:48:58.632Z,8
2023-04-16T19:54:04.706Z,7.9
2023-04-16T19:59:10.830Z,7.9
2023-04-16T20:04:16.978Z,7.9
2023-04-16T20:09:23.111Z,7.9
2023-04-16T20:14:29.170Z,7.8
2023-04-16T20:19:35.451Z,7.8
2023-04-16T20:24:41.480Z,7.9
2023-04-16T20:29:47.579Z,7.9
2023-04-16T20:34:53.631Z,7.8
2023-04-16T20:40:00.909Z,7.8
2023-04-16T20:45:05.863Z,7.7
2023-04-16T20:50:11.059Z,7.7
2023-04-16T20:55:17.275Z,7.7
2023-04-16T21:00:23.211Z,7.6
2023-04-16T21:05:29.325Z,7.6
2023-04-16T21:10:35.442Z,7.6
2023-04-16T21:15:41.605Z,7.6
2023-04-16T21:20:47.649Z,7.5
2023-04-16T21:25:53.810Z,7.5
2023-04-16T21:30:59.896Z,7.5
2023-04-16T21:36:05.997Z,7.5
2023-04-16T21:41:12.107Z,7.4
2023-04-16T21:46:18.217Z,7.4
2023-04-16T21:51:24.343Z,7.3
2023-04-16T21:56:29.473Z,7.2
2023-04-16T22:01:35.592Z,7.2
2023-04-16T22:06:41.694Z,7.1
2023-04-16T22:11:47.809Z,7.1
2023-04-16T22:16:53.899Z,7.1
2023-04-16T22:22:00.018Z,7.1
2023-04-16T22:27:06.139Z,7.1
2023-04-16T22:32:12.252Z,7.1
2023-04-16T22:37:18.340Z,7.1
2023-04-16T22:42:24.459Z,7
2023-04-16T22:47:30.593Z,7
2023-04-16T22:52:36.691Z,7
2023-04-16T22:57:42.902Z,7
2023-04-16T23:02:47.931Z,7
2023-04-16T23:07:54.060Z,7.1
2023-04-16T23:13:00.154Z,7
2023-04-16T23:18:06.261Z,7
2023-04-16T23:23:12.383Z,7
2023-04-16T23:28:18.480Z,7
2023-04-16T23:33:24.592Z,7
2023-04-16T23:38:30.704Z,7
2023-04-16T23:43:36.830Z,6.9
2023-04-16T23:48:42.963Z,6.9
2023-04-16T23:53:49.067Z,6.9
2023-04-16T23:58:55.169Z,6.8
